AFL1405 ULLI-UNKL
Flight info
| Callsign | AFL1405 |
|---|---|
| Flight time | 4h 6m |
| Altitude | 39000 |
| Route | KERIS P989 DIKEP L870 HMN B228 TODES R497 KUMOD N869 KELOK B115 RANET |
| Aircraft | A333/H-SDE3GHIJ2J3J5M1RVWXY/LB2D1 |
Departure
| Time | 2026-04-30 10:32 |
|---|---|
| Airport | Pulkovo Airport (ULLI) |
Arrival
| Time | 2026-04-30 14:39 |
|---|---|
| Airport | Krasnoyarsk International Airport (UNKL) |
| Time | Latitude | Longitude | Altitude | Speed | Heading |
|---|---|---|---|---|---|
| 2026-04-30 10:15 | 59.80183 | 30.26910 | 86 ft | 0 kts | 107° |
| 2026-04-30 10:22 | 59.80183 | 30.26908 | 86 ft | 1 kts | 107° |
| 2026-04-30 10:23 | 59.80190 | 30.26869 | 90 ft | 3 kts | 107° |
| 2026-04-30 10:23 | 59.80196 | 30.26826 | 89 ft | 3 kts | 107° |
| 2026-04-30 10:23 | 59.80203 | 30.26786 | 89 ft | 2 kts | 107° |
| 2026-04-30 10:23 | 59.80206 | 30.26753 | 89 ft | 3 kts | 82° |
| 2026-04-30 10:24 | 59.80206 | 30.26717 | 89 ft | 3 kts | 62° |
| 2026-04-30 10:24 | 59.80195 | 30.26702 | 90 ft | 3 kts | 17° |
| 2026-04-30 10:24 | 59.80174 | 30.26689 | 89 ft | 3 kts | 19° |
| 2026-04-30 10:24 | 59.80161 | 30.26680 | 90 ft | 0 kts | 17° |
| 2026-04-30 10:27 | 59.80167 | 30.26684 | 90 ft | 3 kts | 17° |
| 2026-04-30 10:27 | 59.80192 | 30.26699 | 90 ft | 5 kts | 17° |
| 2026-04-30 10:27 | 59.80247 | 30.26732 | 87 ft | 7 kts | 17° |
| 2026-04-30 10:28 | 59.80317 | 30.26775 | 88 ft | 14 kts | 17° |
| 2026-04-30 10:28 | 59.80382 | 30.26841 | 89 ft | 9 kts | 59° |
| 2026-04-30 10:28 | 59.80376 | 30.26988 | 89 ft | 14 kts | 105° |
| 2026-04-30 10:28 | 59.80340 | 30.27235 | 88 ft | 22 kts | 106° |
| 2026-04-30 10:29 | 59.80291 | 30.27564 | 90 ft | 26 kts | 107° |
| 2026-04-30 10:29 | 59.80238 | 30.27915 | 87 ft | 27 kts | 106° |
| 2026-04-30 10:29 | 59.80184 | 30.28282 | 88 ft | 28 kts | 106° |
| 2026-04-30 10:29 | 59.80127 | 30.28659 | 87 ft | 29 kts | 107° |
| 2026-04-30 10:30 | 59.80069 | 30.29048 | 86 ft | 30 kts | 106° |
| 2026-04-30 10:30 | 59.80009 | 30.29447 | 87 ft | 31 kts | 107° |
| 2026-04-30 10:30 | 59.79957 | 30.29789 | 87 ft | 19 kts | 107° |
| 2026-04-30 10:30 | 59.79938 | 30.29975 | 85 ft | 13 kts | 85° |
| 2026-04-30 10:31 | 59.79986 | 30.30125 | 84 ft | 13 kts | 47° |
| 2026-04-30 10:31 | 59.80053 | 30.30260 | 85 ft | 10 kts | 36° |
| 2026-04-30 10:31 | 59.80114 | 30.30260 | 83 ft | 8 kts | 316° |
| 2026-04-30 10:31 | 59.80135 | 30.30141 | 83 ft | 16 kts | 287° |
| 2026-04-30 10:32 | 59.80226 | 30.29552 | 85 ft | 76 kts | 287° |
| 2026-04-30 10:32 | 59.80432 | 30.28156 | 85 ft | 133 kts | 287° |
| 2026-04-30 10:32 | 59.80737 | 30.26104 | 269 ft | 168 kts | 289° |
| 2026-04-30 10:32 | 59.81084 | 30.23844 | 963 ft | 175 kts | 288° |
| 2026-04-30 10:33 | 59.81440 | 30.21499 | 1804 ft | 185 kts | 286° |
| 2026-04-30 10:33 | 59.81819 | 30.18921 | 2356 ft | 203 kts | 285° |
| 2026-04-30 10:33 | 59.82222 | 30.16181 | 3084 ft | 209 kts | 285° |
| 2026-04-30 10:33 | 59.82635 | 30.13364 | 3853 ft | 214 kts | 285° |
| 2026-04-30 10:34 | 59.83053 | 30.10495 | 4605 ft | 218 kts | 284° |
| 2026-04-30 10:34 | 59.83480 | 30.07566 | 5430 ft | 223 kts | 285° |
| 2026-04-30 10:34 | 59.83927 | 30.04608 | 6381 ft | 224 kts | 290° |
| 2026-04-30 10:34 | 59.84667 | 30.01851 | 7175 ft | 230 kts | 311° |
| 2026-04-30 10:35 | 59.85942 | 29.99952 | 8027 ft | 231 kts | 338° |
| 2026-04-30 10:35 | 59.87494 | 29.99431 | 8952 ft | 231 kts | 3° |
| 2026-04-30 10:35 | 59.89071 | 30.00048 | 9927 ft | 231 kts | 13° |
| 2026-04-30 10:35 | 59.90612 | 30.00981 | 10767 ft | 232 kts | 17° |
| 2026-04-30 10:36 | 59.92046 | 30.02498 | 11569 ft | 238 kts | 34° |
| 2026-04-30 10:36 | 59.93109 | 30.05089 | 12360 ft | 249 kts | 58° |
| 2026-04-30 10:36 | 59.93490 | 30.08538 | 13131 ft | 266 kts | 85° |
| 2026-04-30 10:36 | 59.93152 | 30.12238 | 13896 ft | 276 kts | 98° |
| 2026-04-30 10:37 | 59.92594 | 30.15930 | 14572 ft | 280 kts | 100° |
| 2026-04-30 10:37 | 59.91913 | 30.19621 | 15191 ft | 289 kts | 105° |
| 2026-04-30 10:37 | 59.91079 | 30.23403 | 15487 ft | 308 kts | 107° |
| 2026-04-30 10:37 | 59.90167 | 30.27407 | 15736 ft | 327 kts | 108° |
| 2026-04-30 10:38 | 59.89245 | 30.31633 | 16147 ft | 336 kts | 103° |
| 2026-04-30 10:38 | 59.88732 | 30.36150 | 16642 ft | 337 kts | 90° |
| 2026-04-30 10:38 | 59.88536 | 30.40895 | 16953 ft | 351 kts | 86° |
| 2026-04-30 10:38 | 59.88406 | 30.45793 | 17213 ft | 367 kts | 86° |
| 2026-04-30 10:39 | 59.88269 | 30.51032 | 17527 ft | 381 kts | 86° |
| 2026-04-30 10:39 | 59.88121 | 30.56286 | 18039 ft | 387 kts | 87° |
| 2026-04-30 10:39 | 59.87961 | 30.61654 | 18664 ft | 391 kts | 87° |
| 2026-04-30 10:39 | 59.87795 | 30.67085 | 19207 ft | 394 kts | 87° |
| 2026-04-30 10:40 | 59.87625 | 30.72554 | 19741 ft | 398 kts | 87° |
| 2026-04-30 10:40 | 59.87450 | 30.78069 | 20272 ft | 401 kts | 87° |
| 2026-04-30 10:40 | 59.87272 | 30.83629 | 20807 ft | 404 kts | 87° |
| 2026-04-30 10:40 | 59.87089 | 30.89245 | 21329 ft | 408 kts | 87° |
| 2026-04-30 10:41 | 59.86904 | 30.94884 | 21840 ft | 411 kts | 87° |
| 2026-04-30 10:41 | 59.86714 | 31.00574 | 22337 ft | 414 kts | 87° |
| 2026-04-30 10:41 | 59.86520 | 31.06312 | 22846 ft | 417 kts | 87° |
| 2026-04-30 10:41 | 59.86389 | 31.10142 | 23167 ft | 419 kts | 87° |
| 2026-04-30 10:42 | 59.86189 | 31.15941 | 23734 ft | 421 kts | 87° |
| 2026-04-30 10:42 | 59.85984 | 31.21781 | 24157 ft | 424 kts | 87° |
| 2026-04-30 10:42 | 59.85776 | 31.27651 | 24564 ft | 427 kts | 87° |
| 2026-04-30 10:42 | 59.85564 | 31.33554 | 24975 ft | 429 kts | 87° |
| 2026-04-30 10:43 | 59.85348 | 31.39507 | 25397 ft | 432 kts | 87° |
| 2026-04-30 10:43 | 59.85128 | 31.45479 | 25826 ft | 434 kts | 87° |
| 2026-04-30 10:43 | 59.84905 | 31.51491 | 26224 ft | 437 kts | 87° |
| 2026-04-30 10:43 | 59.84677 | 31.57532 | 26637 ft | 439 kts | 87° |
| 2026-04-30 10:44 | 59.84446 | 31.63605 | 27030 ft | 442 kts | 88° |
| 2026-04-30 10:44 | 59.84210 | 31.69715 | 27431 ft | 444 kts | 88° |
| 2026-04-30 10:44 | 59.83971 | 31.75852 | 27819 ft | 447 kts | 88° |
| 2026-04-30 10:44 | 59.83727 | 31.82024 | 28212 ft | 449 kts | 88° |
| 2026-04-30 10:45 | 59.83478 | 31.88240 | 28639 ft | 451 kts | 88° |
| 2026-04-30 10:45 | 59.83225 | 31.94473 | 29021 ft | 454 kts | 88° |
| 2026-04-30 10:45 | 59.82967 | 32.00770 | 29348 ft | 458 kts | 88° |
| 2026-04-30 10:45 | 59.82705 | 32.07097 | 29721 ft | 461 kts | 88° |
| 2026-04-30 10:46 | 59.82438 | 32.13459 | 30076 ft | 463 kts | 88° |
| 2026-04-30 10:46 | 59.82169 | 32.19772 | 30393 ft | 466 kts | 88° |
| 2026-04-30 10:46 | 59.81909 | 32.26202 | 30676 ft | 467 kts | 86° |
| 2026-04-30 10:46 | 59.81903 | 32.32603 | 31070 ft | 460 kts | 79° |
| 2026-04-30 10:47 | 59.82345 | 32.38839 | 31487 ft | 452 kts | 72° |
| 2026-04-30 10:47 | 59.83063 | 32.44904 | 31892 ft | 449 kts | 69° |
| 2026-04-30 10:47 | 59.83890 | 32.50876 | 32267 ft | 448 kts | 68° |
| 2026-04-30 10:47 | 59.84769 | 32.56813 | 32627 ft | 448 kts | 67° |
| 2026-04-30 10:48 | 59.85663 | 32.62757 | 32988 ft | 448 kts | 67° |
| 2026-04-30 10:48 | 59.86550 | 32.68702 | 33381 ft | 448 kts | 68° |
| 2026-04-30 10:48 | 59.87423 | 32.74650 | 33793 ft | 448 kts | 68° |
| 2026-04-30 10:48 | 59.88285 | 32.80620 | 34127 ft | 448 kts | 68° |
| 2026-04-30 10:49 | 59.89137 | 32.86605 | 34405 ft | 449 kts | 68° |
| 2026-04-30 10:49 | 59.89983 | 32.92594 | 34673 ft | 450 kts | 69° |
| 2026-04-30 10:49 | 59.90827 | 32.98611 | 34870 ft | 452 kts | 69° |
| 2026-04-30 10:49 | 59.91661 | 33.04585 | 35107 ft | 453 kts | 69° |
| 2026-04-30 10:50 | 59.92503 | 33.10639 | 35361 ft | 453 kts | 69° |
| 2026-04-30 10:50 | 59.93344 | 33.16711 | 35634 ft | 454 kts | 69° |
| 2026-04-30 10:50 | 59.94185 | 33.22789 | 35878 ft | 454 kts | 70° |
| 2026-04-30 10:50 | 59.95026 | 33.28865 | 36119 ft | 455 kts | 70° |
| 2026-04-30 10:51 | 59.95869 | 33.34976 | 36353 ft | 455 kts | 70° |
| 2026-04-30 10:51 | 59.96707 | 33.41062 | 36589 ft | 456 kts | 70° |
| 2026-04-30 10:51 | 59.97546 | 33.47186 | 36828 ft | 457 kts | 70° |
| 2026-04-30 10:51 | 59.98382 | 33.53307 | 37046 ft | 457 kts | 70° |
| 2026-04-30 10:52 | 59.99216 | 33.59449 | 37279 ft | 458 kts | 70° |
| 2026-04-30 10:52 | 60.00049 | 33.65602 | 37502 ft | 458 kts | 71° |
| 2026-04-30 10:52 | 60.00878 | 33.71757 | 37716 ft | 460 kts | 71° |
| 2026-04-30 10:52 | 60.01698 | 33.77856 | 37882 ft | 462 kts | 71° |
| 2026-04-30 10:53 | 60.02529 | 33.84073 | 38077 ft | 463 kts | 71° |
| 2026-04-30 10:53 | 60.03358 | 33.90290 | 38295 ft | 463 kts | 71° |
| 2026-04-30 10:53 | 60.04183 | 33.96513 | 38521 ft | 463 kts | 72° |
| 2026-04-30 10:53 | 60.05007 | 34.02754 | 38726 ft | 464 kts | 72° |
| 2026-04-30 10:54 | 60.05828 | 34.08995 | 38907 ft | 464 kts | 72° |
| 2026-04-30 10:54 | 60.06649 | 34.15257 | 39063 ft | 465 kts | 72° |
| 2026-04-30 10:54 | 60.08287 | 34.27827 | 39163 ft | 467 kts | 72° |
| 2026-04-30 10:55 | 60.09913 | 34.40420 | 39161 ft | 467 kts | 72° |
| 2026-04-30 10:55 | 60.11528 | 34.53034 | 39169 ft | 467 kts | 72° |
| 2026-04-30 10:56 | 60.13132 | 34.65660 | 39168 ft | 467 kts | 72° |
| 2026-04-30 10:56 | 60.14712 | 34.78206 | 39167 ft | 467 kts | 72° |
| 2026-04-30 10:57 | 60.16291 | 34.90846 | 39174 ft | 467 kts | 73° |
| 2026-04-30 10:57 | 60.17857 | 35.03501 | 39174 ft | 467 kts | 73° |
| 2026-04-30 10:58 | 60.19415 | 35.16193 | 39174 ft | 467 kts | 73° |
| 2026-04-30 10:58 | 60.20964 | 35.28884 | 39169 ft | 467 kts | 73° |
| 2026-04-30 10:59 | 60.22513 | 35.41585 | 39173 ft | 467 kts | 73° |
| 2026-04-30 10:59 | 60.24053 | 35.54309 | 39172 ft | 468 kts | 73° |
| 2026-04-30 11:00 | 60.25579 | 35.67037 | 39183 ft | 468 kts | 73° |
| 2026-04-30 11:00 | 60.27086 | 35.79726 | 39175 ft | 470 kts | 73° |
| 2026-04-30 11:01 | 60.28597 | 35.92570 | 39173 ft | 471 kts | 73° |
| 2026-04-30 11:01 | 60.30096 | 36.05424 | 39173 ft | 471 kts | 74° |
| 2026-04-30 11:02 | 60.31585 | 36.18316 | 39174 ft | 471 kts | 74° |
| 2026-04-30 11:02 | 60.33060 | 36.31207 | 39173 ft | 472 kts | 74° |
| 2026-04-30 11:03 | 60.34527 | 36.44147 | 39165 ft | 473 kts | 74° |
| 2026-04-30 11:04 | 60.36702 | 36.63564 | 39167 ft | 473 kts | 74° |
| 2026-04-30 11:04 | 60.38129 | 36.76453 | 39174 ft | 473 kts | 75° |
| 2026-04-30 11:05 | 60.39562 | 36.89527 | 39167 ft | 473 kts | 75° |
| 2026-04-30 11:05 | 60.40967 | 37.02462 | 39163 ft | 474 kts | 75° |
| 2026-04-30 11:06 | 60.42368 | 37.15493 | 39157 ft | 474 kts | 75° |
| 2026-04-30 11:06 | 60.43757 | 37.28549 | 39157 ft | 475 kts | 75° |
| 2026-04-30 11:07 | 60.45135 | 37.41626 | 39156 ft | 475 kts | 76° |
| 2026-04-30 11:07 | 60.46503 | 37.54719 | 39157 ft | 475 kts | 75° |
| 2026-04-30 11:08 | 60.47891 | 37.67807 | 39155 ft | 474 kts | 75° |
| 2026-04-30 11:08 | 60.49277 | 37.80876 | 39159 ft | 475 kts | 76° |
| 2026-04-30 11:09 | 60.50655 | 37.94001 | 39151 ft | 475 kts | 76° |
| 2026-04-30 11:09 | 60.52015 | 38.07132 | 39148 ft | 476 kts | 76° |
| 2026-04-30 11:10 | 60.53354 | 38.20201 | 39147 ft | 476 kts | 76° |
| 2026-04-30 11:10 | 60.54697 | 38.33449 | 39145 ft | 476 kts | 76° |
| 2026-04-30 11:11 | 60.56011 | 38.46545 | 39148 ft | 476 kts | 76° |
| 2026-04-30 11:11 | 60.57320 | 38.59728 | 39144 ft | 476 kts | 76° |
| 2026-04-30 11:12 | 60.58617 | 38.72936 | 39157 ft | 476 kts | 76° |
| 2026-04-30 11:12 | 60.59897 | 38.86153 | 39152 ft | 477 kts | 77° |
| 2026-04-30 11:13 | 60.61079 | 38.99451 | 39146 ft | 477 kts | 78° |
| 2026-04-30 11:13 | 60.62205 | 39.12807 | 39145 ft | 478 kts | 78° |
| 2026-04-30 11:14 | 60.63311 | 39.26052 | 39145 ft | 478 kts | 78° |
| 2026-04-30 11:14 | 60.64420 | 39.39405 | 39145 ft | 478 kts | 78° |
| 2026-04-30 11:15 | 60.65519 | 39.52753 | 39148 ft | 478 kts | 78° |
| 2026-04-30 11:15 | 60.66606 | 39.66116 | 39150 ft | 478 kts | 79° |
| 2026-04-30 11:16 | 60.67682 | 39.79520 | 39149 ft | 479 kts | 79° |
| 2026-04-30 11:16 | 60.68744 | 39.92937 | 39151 ft | 479 kts | 79° |
| 2026-04-30 11:17 | 60.69793 | 40.06368 | 39151 ft | 480 kts | 79° |
| 2026-04-30 11:17 | 60.70830 | 40.19830 | 39144 ft | 480 kts | 79° |
| 2026-04-30 11:18 | 60.71853 | 40.33289 | 39145 ft | 480 kts | 79° |
| 2026-04-30 11:18 | 60.73358 | 40.53424 | 39143 ft | 480 kts | 79° |
| 2026-04-30 11:19 | 60.74350 | 40.66948 | 39142 ft | 481 kts | 80° |
| 2026-04-30 11:19 | 60.75331 | 40.80499 | 39144 ft | 481 kts | 80° |
| 2026-04-30 11:20 | 60.76296 | 40.94036 | 39148 ft | 481 kts | 80° |
| 2026-04-30 11:20 | 60.77248 | 41.07598 | 39142 ft | 481 kts | 80° |
| 2026-04-30 11:21 | 60.78186 | 41.21155 | 39140 ft | 481 kts | 80° |
| 2026-04-30 11:21 | 60.79111 | 41.34734 | 39145 ft | 481 kts | 81° |
| 2026-04-30 11:22 | 60.80023 | 41.48328 | 39142 ft | 482 kts | 80° |
| 2026-04-30 11:22 | 60.80897 | 41.61876 | 39136 ft | 483 kts | 81° |
| 2026-04-30 11:23 | 60.81727 | 41.75533 | 39135 ft | 483 kts | 81° |
| 2026-04-30 11:24 | 60.82939 | 41.96018 | 39123 ft | 483 kts | 81° |
| 2026-04-30 11:24 | 60.83735 | 42.09683 | 39132 ft | 483 kts | 82° |
| 2026-04-30 11:25 | 60.84906 | 42.30215 | 39127 ft | 483 kts | 81° |
| 2026-04-30 11:26 | 60.86422 | 42.57667 | 39122 ft | 484 kts | 83° |
| 2026-04-30 11:26 | 60.87034 | 42.69077 | 39123 ft | 484 kts | 82° |
| 2026-04-30 11:27 | 60.87759 | 42.82829 | 39121 ft | 484 kts | 82° |
| 2026-04-30 11:27 | 60.88470 | 42.96577 | 39126 ft | 484 kts | 83° |
| 2026-04-30 11:28 | 60.89512 | 43.17230 | 39124 ft | 485 kts | 83° |
| 2026-04-30 11:29 | 60.90189 | 43.31024 | 39125 ft | 485 kts | 83° |
| 2026-04-30 11:29 | 60.91176 | 43.51655 | 39122 ft | 485 kts | 83° |
| 2026-04-30 11:30 | 60.92133 | 43.72367 | 39120 ft | 485 kts | 83° |
| 2026-04-30 11:31 | 60.92755 | 43.86209 | 39122 ft | 485 kts | 84° |
| 2026-04-30 11:31 | 60.93363 | 44.00030 | 39121 ft | 485 kts | 84° |
| 2026-04-30 11:32 | 60.94107 | 44.13834 | 39123 ft | 486 kts | 78° |
| 2026-04-30 11:32 | 60.95637 | 44.27412 | 39119 ft | 488 kts | 76° |
| 2026-04-30 11:33 | 60.98172 | 44.47714 | 39114 ft | 488 kts | 75° |
| 2026-04-30 11:33 | 60.99860 | 44.61250 | 39101 ft | 488 kts | 75° |
| 2026-04-30 11:34 | 61.01521 | 44.74805 | 39115 ft | 488 kts | 76° |
| 2026-04-30 11:34 | 61.03165 | 44.88404 | 39104 ft | 489 kts | 76° |
| 2026-04-30 11:35 | 61.04788 | 45.01966 | 39111 ft | 489 kts | 76° |
| 2026-04-30 11:35 | 61.06406 | 45.15608 | 39100 ft | 489 kts | 76° |
| 2026-04-30 11:36 | 61.08012 | 45.29276 | 39113 ft | 489 kts | 76° |
| 2026-04-30 11:36 | 61.09511 | 45.42154 | 39113 ft | 489 kts | 76° |
| 2026-04-30 11:37 | 61.11091 | 45.55852 | 39098 ft | 489 kts | 76° |
| 2026-04-30 11:37 | 61.12651 | 45.69514 | 39098 ft | 491 kts | 76° |
| 2026-04-30 11:38 | 61.14208 | 45.83282 | 39098 ft | 492 kts | 77° |
| 2026-04-30 11:38 | 61.15753 | 45.97082 | 39097 ft | 492 kts | 77° |
| 2026-04-30 11:39 | 61.17283 | 46.10879 | 39099 ft | 492 kts | 77° |
| 2026-04-30 11:39 | 61.18809 | 46.24701 | 39110 ft | 492 kts | 77° |
| 2026-04-30 11:40 | 61.20321 | 46.38535 | 39097 ft | 493 kts | 77° |
| 2026-04-30 11:40 | 61.21824 | 46.52423 | 39094 ft | 493 kts | 77° |
| 2026-04-30 11:41 | 61.23313 | 46.66330 | 39094 ft | 493 kts | 77° |
| 2026-04-30 11:41 | 61.24886 | 46.80100 | 39088 ft | 493 kts | 76° |
| 2026-04-30 11:42 | 61.26635 | 46.93899 | 39088 ft | 494 kts | 75° |
| 2026-04-30 11:42 | 61.28392 | 47.07721 | 39094 ft | 495 kts | 76° |
| 2026-04-30 11:43 | 61.30119 | 47.21603 | 39088 ft | 496 kts | 76° |
| 2026-04-30 11:43 | 61.31790 | 47.35547 | 39087 ft | 496 kts | 78° |
| 2026-04-30 11:44 | 61.33171 | 47.49628 | 39092 ft | 496 kts | 79° |
| 2026-04-30 11:44 | 61.34440 | 47.63757 | 39092 ft | 496 kts | 80° |
| 2026-04-30 11:45 | 61.35721 | 47.77892 | 39085 ft | 496 kts | 79° |
| 2026-04-30 11:45 | 61.37156 | 47.91974 | 39086 ft | 496 kts | 78° |
| 2026-04-30 11:46 | 61.38643 | 48.05957 | 39079 ft | 497 kts | 78° |
| 2026-04-30 11:46 | 61.40120 | 48.20052 | 39080 ft | 497 kts | 78° |
| 2026-04-30 11:47 | 61.41567 | 48.34159 | 39078 ft | 497 kts | 78° |
| 2026-04-30 11:47 | 61.42996 | 48.48312 | 39077 ft | 498 kts | 79° |
| 2026-04-30 11:48 | 61.44408 | 48.62467 | 39070 ft | 498 kts | 79° |
| 2026-04-30 11:48 | 61.45809 | 48.76665 | 39072 ft | 499 kts | 79° |
| 2026-04-30 11:49 | 61.47197 | 48.90880 | 39063 ft | 499 kts | 79° |
| 2026-04-30 11:49 | 61.48560 | 49.05009 | 39070 ft | 499 kts | 79° |
| 2026-04-30 11:50 | 61.49917 | 49.19243 | 39066 ft | 499 kts | 79° |
| 2026-04-30 11:50 | 61.51260 | 49.33493 | 39058 ft | 499 kts | 79° |
| 2026-04-30 11:51 | 61.52598 | 49.47752 | 39059 ft | 499 kts | 79° |
| 2026-04-30 11:51 | 61.53933 | 49.62053 | 39056 ft | 499 kts | 79° |
| 2026-04-30 11:52 | 61.55253 | 49.76353 | 39058 ft | 499 kts | 80° |
| 2026-04-30 11:52 | 61.56559 | 49.90691 | 39048 ft | 500 kts | 80° |
| 2026-04-30 11:53 | 61.57850 | 50.05043 | 39050 ft | 501 kts | 80° |
| 2026-04-30 11:53 | 61.59126 | 50.19422 | 39047 ft | 501 kts | 80° |
| 2026-04-30 11:54 | 61.60380 | 50.33717 | 39046 ft | 501 kts | 80° |
| 2026-04-30 11:54 | 61.61627 | 50.48131 | 39038 ft | 501 kts | 81° |
| 2026-04-30 11:55 | 61.62863 | 50.62591 | 39055 ft | 501 kts | 81° |
| 2026-04-30 11:55 | 61.64080 | 50.77027 | 39050 ft | 501 kts | 81° |
| 2026-04-30 11:56 | 61.65666 | 50.91323 | 39039 ft | 502 kts | 75° |
| 2026-04-30 11:56 | 61.67565 | 51.05490 | 39049 ft | 502 kts | 75° |
| 2026-04-30 11:57 | 61.69504 | 51.19617 | 39050 ft | 502 kts | 74° |
| 2026-04-30 11:57 | 61.71433 | 51.33775 | 39042 ft | 502 kts | 75° |
| 2026-04-30 11:58 | 61.73328 | 51.47883 | 39044 ft | 503 kts | 75° |
| 2026-04-30 11:58 | 61.75218 | 51.62116 | 39049 ft | 503 kts | 75° |
| 2026-04-30 11:59 | 61.77094 | 51.76373 | 39052 ft | 504 kts | 75° |
| 2026-04-30 11:59 | 61.78956 | 51.90662 | 39043 ft | 504 kts | 75° |
| 2026-04-30 12:00 | 61.80803 | 52.04951 | 39055 ft | 504 kts | 75° |
| 2026-04-30 12:00 | 61.82637 | 52.19283 | 39056 ft | 504 kts | 76° |
| 2026-04-30 12:01 | 61.83837 | 52.33833 | 39057 ft | 501 kts | 90° |
| 2026-04-30 12:01 | 61.83848 | 52.48582 | 39050 ft | 501 kts | 93° |
| 2026-04-30 12:02 | 61.83618 | 52.63359 | 39061 ft | 502 kts | 94° |
| 2026-04-30 12:02 | 61.83343 | 52.78028 | 39063 ft | 502 kts | 94° |
| 2026-04-30 12:03 | 61.82936 | 53.00176 | 39072 ft | 502 kts | 94° |
| 2026-04-30 12:04 | 61.82658 | 53.14954 | 39076 ft | 502 kts | 94° |
| 2026-04-30 12:04 | 61.82367 | 53.29713 | 39075 ft | 502 kts | 94° |
| 2026-04-30 12:05 | 61.82061 | 53.44489 | 39071 ft | 503 kts | 94° |
| 2026-04-30 12:05 | 61.81747 | 53.59287 | 39071 ft | 503 kts | 94° |
| 2026-04-30 12:06 | 61.81420 | 53.74086 | 39074 ft | 503 kts | 94° |
| 2026-04-30 12:06 | 61.81079 | 53.88778 | 39079 ft | 503 kts | 95° |
| 2026-04-30 12:07 | 61.80719 | 54.03551 | 39072 ft | 503 kts | 95° |
| 2026-04-30 12:07 | 61.80342 | 54.18353 | 39076 ft | 504 kts | 95° |
| 2026-04-30 12:08 | 61.79949 | 54.33160 | 39077 ft | 504 kts | 95° |
| 2026-04-30 12:08 | 61.79540 | 54.47975 | 39073 ft | 505 kts | 95° |
| 2026-04-30 12:09 | 61.79115 | 54.62791 | 39075 ft | 505 kts | 96° |
| 2026-04-30 12:09 | 61.78683 | 54.77504 | 39076 ft | 505 kts | 95° |
| 2026-04-30 12:10 | 61.78257 | 54.92401 | 39071 ft | 505 kts | 95° |
| 2026-04-30 12:10 | 61.77829 | 55.07096 | 39052 ft | 505 kts | 96° |
| 2026-04-30 12:11 | 61.77380 | 55.21902 | 39080 ft | 506 kts | 96° |
| 2026-04-30 12:11 | 61.76910 | 55.36771 | 39073 ft | 507 kts | 96° |
| 2026-04-30 12:12 | 61.76424 | 55.51638 | 39069 ft | 507 kts | 96° |
| 2026-04-30 12:12 | 61.75921 | 55.66515 | 39073 ft | 508 kts | 96° |
| 2026-04-30 12:13 | 61.75403 | 55.81374 | 39074 ft | 508 kts | 96° |
| 2026-04-30 12:13 | 61.74871 | 55.96158 | 39070 ft | 507 kts | 97° |
| 2026-04-30 12:14 | 61.74411 | 56.08590 | 39074 ft | 507 kts | 97° |
| 2026-04-30 12:14 | 61.73846 | 56.23443 | 39068 ft | 507 kts | 97° |
| 2026-04-30 12:15 | 61.73266 | 56.38290 | 39072 ft | 509 kts | 97° |
| 2026-04-30 12:15 | 61.72672 | 56.53067 | 39078 ft | 509 kts | 97° |
| 2026-04-30 12:16 | 61.72058 | 56.67952 | 39075 ft | 509 kts | 97° |
| 2026-04-30 12:16 | 61.71427 | 56.82827 | 39076 ft | 509 kts | 98° |
| 2026-04-30 12:17 | 61.70451 | 57.05135 | 39078 ft | 509 kts | 98° |
| 2026-04-30 12:17 | 61.69780 | 57.20000 | 39079 ft | 510 kts | 98° |
| 2026-04-30 12:18 | 61.69096 | 57.34800 | 39052 ft | 510 kts | 98° |
| 2026-04-30 12:18 | 61.68391 | 57.49687 | 39072 ft | 511 kts | 98° |
| 2026-04-30 12:19 | 61.67669 | 57.64582 | 39076 ft | 511 kts | 99° |
| 2026-04-30 12:19 | 61.66931 | 57.79480 | 39078 ft | 511 kts | 99° |
| 2026-04-30 12:20 | 61.66195 | 57.94014 | 39076 ft | 511 kts | 99° |
| 2026-04-30 12:20 | 61.65425 | 58.08890 | 39070 ft | 511 kts | 99° |
| 2026-04-30 12:21 | 61.64640 | 58.23735 | 39077 ft | 511 kts | 99° |
| 2026-04-30 12:21 | 61.63838 | 58.38592 | 39078 ft | 511 kts | 99° |
| 2026-04-30 12:22 | 61.63055 | 58.53329 | 39068 ft | 511 kts | 99° |
| 2026-04-30 12:22 | 61.62332 | 58.68183 | 39074 ft | 511 kts | 98° |
| 2026-04-30 12:23 | 61.61610 | 58.83035 | 39075 ft | 511 kts | 99° |
| 2026-04-30 12:23 | 61.60860 | 58.97942 | 39073 ft | 514 kts | 99° |
| 2026-04-30 12:24 | 61.60085 | 59.12889 | 39073 ft | 514 kts | 99° |
| 2026-04-30 12:24 | 61.59292 | 59.27831 | 39066 ft | 514 kts | 99° |
| 2026-04-30 12:25 | 61.58484 | 59.42742 | 39063 ft | 514 kts | 99° |
| 2026-04-30 12:25 | 61.57665 | 59.57562 | 39037 ft | 514 kts | 100° |
| 2026-04-30 12:26 | 61.56822 | 59.72500 | 39066 ft | 516 kts | 100° |
| 2026-04-30 12:26 | 61.55960 | 59.87479 | 39061 ft | 516 kts | 100° |
| 2026-04-30 12:27 | 61.55085 | 60.02427 | 39065 ft | 516 kts | 100° |
| 2026-04-30 12:27 | 61.54199 | 60.17374 | 39064 ft | 516 kts | 100° |
| 2026-04-30 12:28 | 61.53298 | 60.32308 | 39061 ft | 516 kts | 100° |
| 2026-04-30 12:28 | 61.52381 | 60.47229 | 39061 ft | 516 kts | 101° |
| 2026-04-30 12:29 | 61.51448 | 60.62130 | 39061 ft | 516 kts | 101° |
| 2026-04-30 12:29 | 61.50499 | 60.77018 | 39052 ft | 515 kts | 101° |
| 2026-04-30 12:30 | 61.49540 | 60.91791 | 39067 ft | 516 kts | 101° |
| 2026-04-30 12:30 | 61.48557 | 61.06677 | 39063 ft | 516 kts | 101° |
| 2026-04-30 12:31 | 61.47561 | 61.21540 | 39063 ft | 516 kts | 101° |
| 2026-04-30 12:31 | 61.46556 | 61.36395 | 39061 ft | 516 kts | 101° |
| 2026-04-30 12:32 | 61.45535 | 61.51270 | 39060 ft | 516 kts | 101° |
| 2026-04-30 12:32 | 61.44499 | 61.66128 | 39061 ft | 516 kts | 101° |
| 2026-04-30 12:33 | 61.43446 | 61.80966 | 39061 ft | 516 kts | 102° |
| 2026-04-30 12:33 | 61.42376 | 61.95814 | 39064 ft | 517 kts | 102° |
| 2026-04-30 12:34 | 61.41295 | 62.10574 | 39065 ft | 517 kts | 102° |
| 2026-04-30 12:34 | 61.40192 | 62.25408 | 39065 ft | 517 kts | 102° |
| 2026-04-30 12:35 | 61.39072 | 62.40245 | 39062 ft | 517 kts | 102° |
| 2026-04-30 12:35 | 61.37936 | 62.55075 | 39064 ft | 518 kts | 102° |
| 2026-04-30 12:36 | 61.36784 | 62.69900 | 39061 ft | 518 kts | 102° |
| 2026-04-30 12:36 | 61.35632 | 62.84721 | 39065 ft | 518 kts | 102° |
| 2026-04-30 12:37 | 61.34469 | 62.99543 | 39049 ft | 518 kts | 103° |
| 2026-04-30 12:37 | 61.33286 | 63.14387 | 39063 ft | 519 kts | 103° |
| 2026-04-30 12:38 | 61.32086 | 63.29213 | 39066 ft | 520 kts | 103° |
| 2026-04-30 12:38 | 61.30877 | 63.43942 | 39067 ft | 520 kts | 103° |
| 2026-04-30 12:39 | 61.29643 | 63.58773 | 39069 ft | 520 kts | 103° |
| 2026-04-30 12:39 | 61.28828 | 63.73773 | 39072 ft | 522 kts | 97° |
| 2026-04-30 12:40 | 61.28344 | 63.88876 | 39072 ft | 523 kts | 96° |
| 2026-04-30 12:40 | 61.27910 | 64.03862 | 39075 ft | 523 kts | 96° |
| 2026-04-30 12:41 | 61.27456 | 64.18963 | 39048 ft | 523 kts | 96° |
| 2026-04-30 12:41 | 61.26972 | 64.34087 | 39080 ft | 525 kts | 97° |
| 2026-04-30 12:42 | 61.26466 | 64.49243 | 39080 ft | 525 kts | 97° |
| 2026-04-30 12:42 | 61.25954 | 64.64389 | 39080 ft | 526 kts | 97° |
| 2026-04-30 12:43 | 61.25437 | 64.79545 | 39086 ft | 525 kts | 97° |
| 2026-04-30 12:43 | 61.24905 | 64.94674 | 39086 ft | 525 kts | 97° |
| 2026-04-30 12:44 | 61.24354 | 65.09822 | 39086 ft | 526 kts | 97° |
| 2026-04-30 12:44 | 61.23785 | 65.24969 | 39087 ft | 526 kts | 97° |
| 2026-04-30 12:45 | 61.23203 | 65.40008 | 39094 ft | 526 kts | 97° |
| 2026-04-30 12:45 | 61.22600 | 65.55136 | 39095 ft | 525 kts | 97° |
| 2026-04-30 12:46 | 61.21979 | 65.70270 | 39095 ft | 527 kts | 97° |
| 2026-04-30 12:46 | 61.21341 | 65.85438 | 39101 ft | 527 kts | 98° |
| 2026-04-30 12:47 | 61.20686 | 66.00603 | 39102 ft | 527 kts | 98° |
| 2026-04-30 12:47 | 61.20013 | 66.15763 | 39097 ft | 527 kts | 98° |
| 2026-04-30 12:48 | 61.19324 | 66.30914 | 39102 ft | 527 kts | 98° |
| 2026-04-30 12:48 | 61.18623 | 66.45947 | 39102 ft | 528 kts | 98° |
| 2026-04-30 12:49 | 61.17899 | 66.61081 | 39107 ft | 528 kts | 98° |
| 2026-04-30 12:49 | 61.17159 | 66.76229 | 39105 ft | 528 kts | 98° |
| 2026-04-30 12:50 | 61.16401 | 66.91367 | 39110 ft | 528 kts | 98° |
| 2026-04-30 12:50 | 61.15627 | 67.06499 | 39109 ft | 529 kts | 99° |
| 2026-04-30 12:51 | 61.14839 | 67.21559 | 39110 ft | 529 kts | 99° |
| 2026-04-30 12:51 | 61.14027 | 67.36729 | 39110 ft | 530 kts | 99° |
| 2026-04-30 12:52 | 61.13200 | 67.51886 | 39116 ft | 530 kts | 99° |
| 2026-04-30 12:52 | 61.12354 | 67.67049 | 39114 ft | 530 kts | 99° |
| 2026-04-30 12:53 | 61.11493 | 67.82187 | 39113 ft | 530 kts | 99° |
| 2026-04-30 12:53 | 61.10614 | 67.97327 | 39113 ft | 530 kts | 99° |
| 2026-04-30 12:54 | 61.09718 | 68.12456 | 39119 ft | 530 kts | 100° |
| 2026-04-30 12:54 | 61.08805 | 68.27578 | 39119 ft | 530 kts | 100° |
| 2026-04-30 12:55 | 61.07876 | 68.42581 | 39118 ft | 530 kts | 100° |
| 2026-04-30 12:55 | 61.06924 | 68.57673 | 39135 ft | 530 kts | 100° |
| 2026-04-30 12:56 | 61.05954 | 68.72770 | 39145 ft | 530 kts | 101° |
| 2026-04-30 12:56 | 61.04969 | 68.87857 | 39155 ft | 530 kts | 101° |
| 2026-04-30 12:57 | 61.03963 | 69.02960 | 39157 ft | 530 kts | 102° |
| 2026-04-30 12:57 | 61.01823 | 69.17278 | 39158 ft | 518 kts | 121° |
| 2026-04-30 12:58 | 60.98377 | 69.30274 | 39153 ft | 515 kts | 126° |
| 2026-04-30 12:58 | 60.95317 | 69.40789 | 39126 ft | 515 kts | 126° |
| 2026-04-30 12:59 | 60.90990 | 69.55422 | 39141 ft | 515 kts | 127° |
| 2026-04-30 12:59 | 60.87280 | 69.68025 | 39126 ft | 515 kts | 126° |
| 2026-04-30 13:00 | 60.83642 | 69.80392 | 39141 ft | 515 kts | 126° |
| 2026-04-30 13:00 | 60.80559 | 69.90839 | 39143 ft | 515 kts | 127° |
| 2026-04-30 13:01 | 60.76808 | 70.03334 | 39143 ft | 515 kts | 127° |
| 2026-04-30 13:01 | 60.73023 | 70.15762 | 39143 ft | 514 kts | 127° |
| 2026-04-30 13:02 | 60.69227 | 70.28157 | 39146 ft | 514 kts | 127° |
| 2026-04-30 13:02 | 60.64810 | 70.42523 | 39148 ft | 515 kts | 126° |
| 2026-04-30 13:03 | 60.62240 | 70.53648 | 39151 ft | 522 kts | 115° |
| 2026-04-30 13:03 | 60.59828 | 70.67641 | 39149 ft | 524 kts | 112° |
| 2026-04-30 13:04 | 60.57559 | 70.81758 | 39147 ft | 525 kts | 112° |
| 2026-04-30 13:04 | 60.55293 | 70.95781 | 39137 ft | 526 kts | 112° |
| 2026-04-30 13:05 | 60.52967 | 71.09908 | 39151 ft | 527 kts | 112° |
| 2026-04-30 13:06 | 60.49427 | 71.31059 | 39156 ft | 527 kts | 113° |
| 2026-04-30 13:06 | 60.47047 | 71.45132 | 39154 ft | 527 kts | 113° |
| 2026-04-30 13:07 | 60.44652 | 71.59186 | 39151 ft | 527 kts | 113° |
| 2026-04-30 13:07 | 60.42242 | 71.73229 | 39161 ft | 528 kts | 113° |
| 2026-04-30 13:08 | 60.39820 | 71.87236 | 39158 ft | 527 kts | 113° |
| 2026-04-30 13:08 | 60.37396 | 72.01146 | 39165 ft | 528 kts | 113° |
| 2026-04-30 13:09 | 60.34942 | 72.15121 | 39167 ft | 528 kts | 114° |
| 2026-04-30 13:09 | 60.32475 | 72.29072 | 39169 ft | 528 kts | 114° |
| 2026-04-30 13:10 | 60.29991 | 72.43012 | 39159 ft | 529 kts | 114° |
| 2026-04-30 13:10 | 60.27481 | 72.56992 | 39173 ft | 529 kts | 114° |
| 2026-04-30 13:11 | 60.24963 | 72.70919 | 39173 ft | 529 kts | 114° |
| 2026-04-30 13:11 | 60.22431 | 72.84822 | 39113 ft | 529 kts | 114° |
| 2026-04-30 13:12 | 60.19900 | 72.98610 | 39171 ft | 529 kts | 115° |
| 2026-04-30 13:12 | 60.17341 | 73.12460 | 39172 ft | 529 kts | 115° |
| 2026-04-30 13:13 | 60.13461 | 73.33266 | 39170 ft | 531 kts | 115° |
| 2026-04-30 13:14 | 60.09547 | 73.54037 | 39170 ft | 530 kts | 115° |
| 2026-04-30 13:14 | 60.05605 | 73.74738 | 39173 ft | 530 kts | 115° |
| 2026-04-30 13:15 | 60.01647 | 73.95303 | 39176 ft | 530 kts | 115° |
| 2026-04-30 13:16 | 59.98977 | 74.09053 | 39175 ft | 531 kts | 115° |
| 2026-04-30 13:16 | 59.96284 | 74.22824 | 39176 ft | 531 kts | 116° |
| 2026-04-30 13:17 | 59.92228 | 74.43391 | 39176 ft | 531 kts | 116° |
| 2026-04-30 13:18 | 59.88136 | 74.63928 | 39175 ft | 531 kts | 116° |
| 2026-04-30 13:18 | 59.84032 | 74.84311 | 39168 ft | 532 kts | 116° |
| 2026-04-30 13:19 | 59.81259 | 74.97971 | 39167 ft | 533 kts | 116° |
| 2026-04-30 13:19 | 59.78473 | 75.11606 | 39170 ft | 532 kts | 116° |
| 2026-04-30 13:20 | 59.75679 | 75.25223 | 39166 ft | 533 kts | 115° |
| 2026-04-30 13:20 | 59.73377 | 75.39268 | 39170 ft | 535 kts | 111° |
| 2026-04-30 13:21 | 59.71235 | 75.53303 | 39167 ft | 536 kts | 110° |
| 2026-04-30 13:22 | 59.68013 | 75.74556 | 39138 ft | 537 kts | 110° |
| 2026-04-30 13:22 | 59.64746 | 75.95717 | 39167 ft | 535 kts | 110° |
| 2026-04-30 13:23 | 59.61441 | 76.16799 | 39171 ft | 535 kts | 111° |
| 2026-04-30 13:24 | 59.56983 | 76.44835 | 39163 ft | 535 kts | 111° |
| 2026-04-30 13:25 | 59.52440 | 76.72666 | 39155 ft | 534 kts | 111° |
| 2026-04-30 13:26 | 59.46663 | 77.07409 | 39164 ft | 534 kts | 111° |
| 2026-04-30 13:28 | 59.40867 | 77.42075 | 39163 ft | 533 kts | 111° |
| 2026-04-30 13:28 | 59.37361 | 77.62706 | 39162 ft | 533 kts | 112° |
| 2026-04-30 13:29 | 59.32611 | 77.90286 | 39162 ft | 534 kts | 112° |
| 2026-04-30 13:31 | 59.26590 | 78.24666 | 39159 ft | 533 kts | 112° |
| 2026-04-30 13:32 | 59.20495 | 78.58828 | 39154 ft | 534 kts | 112° |
| 2026-04-30 13:33 | 59.15539 | 78.86169 | 39150 ft | 534 kts | 112° |
| 2026-04-30 13:34 | 59.11787 | 79.06600 | 39143 ft | 533 kts | 112° |
| 2026-04-30 13:35 | 59.06769 | 79.33590 | 39144 ft | 532 kts | 112° |
| 2026-04-30 13:36 | 59.01679 | 79.60582 | 39137 ft | 532 kts | 113° |
| 2026-04-30 13:36 | 58.97826 | 79.80768 | 39138 ft | 532 kts | 113° |
| 2026-04-30 13:37 | 58.93937 | 80.00927 | 39131 ft | 532 kts | 113° |
| 2026-04-30 13:38 | 58.90036 | 80.20951 | 39129 ft | 532 kts | 113° |
| 2026-04-30 13:39 | 58.84739 | 80.47697 | 39123 ft | 532 kts | 114° |
| 2026-04-30 13:40 | 58.80719 | 80.67623 | 39115 ft | 533 kts | 114° |
| 2026-04-30 13:40 | 58.78014 | 80.80933 | 39116 ft | 533 kts | 114° |
| 2026-04-30 13:41 | 58.75296 | 80.94223 | 39113 ft | 533 kts | 114° |
| 2026-04-30 13:41 | 58.72563 | 81.07502 | 39075 ft | 533 kts | 114° |
| 2026-04-30 13:42 | 58.69828 | 81.20724 | 39115 ft | 530 kts | 114° |
| 2026-04-30 13:42 | 58.65729 | 81.40504 | 39110 ft | 531 kts | 114° |
| 2026-04-30 13:43 | 58.62995 | 81.53598 | 39110 ft | 531 kts | 114° |
| 2026-04-30 13:43 | 58.60232 | 81.66742 | 39110 ft | 531 kts | 114° |
| 2026-04-30 13:44 | 58.57453 | 81.79875 | 39105 ft | 531 kts | 115° |
| 2026-04-30 13:44 | 58.54664 | 81.92964 | 39109 ft | 531 kts | 114° |
| 2026-04-30 13:45 | 58.50443 | 82.12624 | 39091 ft | 531 kts | 114° |
| 2026-04-30 13:46 | 58.47637 | 82.25594 | 39112 ft | 530 kts | 115° |
| 2026-04-30 13:46 | 58.44808 | 82.38591 | 39113 ft | 529 kts | 115° |
| 2026-04-30 13:47 | 58.41965 | 82.51565 | 39116 ft | 529 kts | 115° |
| 2026-04-30 13:47 | 58.39587 | 82.62358 | 39116 ft | 530 kts | 115° |
| 2026-04-30 13:48 | 58.36722 | 82.75287 | 39119 ft | 530 kts | 115° |
| 2026-04-30 13:48 | 58.33845 | 82.88195 | 39116 ft | 530 kts | 115° |
| 2026-04-30 13:49 | 58.30948 | 83.01120 | 39121 ft | 530 kts | 115° |
| 2026-04-30 13:49 | 58.28070 | 83.13903 | 39112 ft | 529 kts | 115° |
| 2026-04-30 13:50 | 58.25156 | 83.26771 | 39118 ft | 529 kts | 115° |
| 2026-04-30 13:50 | 58.20766 | 83.46004 | 39115 ft | 529 kts | 115° |
| 2026-04-30 13:51 | 58.17823 | 83.58803 | 39121 ft | 529 kts | 115° |
| 2026-04-30 13:51 | 58.14864 | 83.71592 | 39121 ft | 529 kts | 115° |
| 2026-04-30 13:52 | 58.11917 | 83.84254 | 39125 ft | 529 kts | 115° |
| 2026-04-30 13:52 | 58.08936 | 83.96991 | 39122 ft | 529 kts | 115° |
| 2026-04-30 13:53 | 58.05942 | 84.09702 | 39106 ft | 530 kts | 115° |
| 2026-04-30 13:53 | 58.02934 | 84.22394 | 39127 ft | 530 kts | 115° |
| 2026-04-30 13:54 | 57.99915 | 84.35065 | 39127 ft | 530 kts | 115° |
| 2026-04-30 13:54 | 57.96874 | 84.47752 | 39129 ft | 530 kts | 115° |
| 2026-04-30 13:55 | 57.93824 | 84.60398 | 39133 ft | 530 kts | 115° |
| 2026-04-30 13:55 | 57.90759 | 84.73036 | 39140 ft | 531 kts | 115° |
| 2026-04-30 13:56 | 57.87703 | 84.85566 | 39140 ft | 531 kts | 115° |
| 2026-04-30 13:56 | 57.84615 | 84.98153 | 39141 ft | 531 kts | 115° |
| 2026-04-30 13:57 | 57.81512 | 85.10727 | 39143 ft | 530 kts | 115° |
| 2026-04-30 13:57 | 57.78401 | 85.23261 | 39151 ft | 529 kts | 115° |
| 2026-04-30 13:58 | 57.73720 | 85.41993 | 39154 ft | 529 kts | 115° |
| 2026-04-30 13:59 | 57.70581 | 85.54462 | 39159 ft | 529 kts | 115° |
| 2026-04-30 13:59 | 57.67458 | 85.66803 | 39162 ft | 529 kts | 115° |
| 2026-04-30 14:00 | 57.64296 | 85.79221 | 39160 ft | 529 kts | 115° |
| 2026-04-30 14:00 | 57.59551 | 85.97736 | 39174 ft | 526 kts | 115° |
| 2026-04-30 14:01 | 57.56381 | 86.10020 | 39170 ft | 525 kts | 116° |
| 2026-04-30 14:01 | 57.53208 | 86.22243 | 39176 ft | 524 kts | 116° |
| 2026-04-30 14:02 | 57.50027 | 86.34433 | 39175 ft | 524 kts | 116° |
| 2026-04-30 14:02 | 57.46835 | 86.46597 | 39178 ft | 524 kts | 115° |
| 2026-04-30 14:03 | 57.43632 | 86.58740 | 39176 ft | 524 kts | 116° |
| 2026-04-30 14:03 | 57.40414 | 86.70871 | 39178 ft | 523 kts | 116° |
| 2026-04-30 14:04 | 57.37187 | 86.82973 | 39178 ft | 523 kts | 116° |
| 2026-04-30 14:04 | 57.34033 | 86.94737 | 39167 ft | 524 kts | 116° |
| 2026-04-30 14:05 | 57.30784 | 87.06791 | 39184 ft | 522 kts | 115° |
| 2026-04-30 14:05 | 57.27542 | 87.18759 | 39184 ft | 520 kts | 116° |
| 2026-04-30 14:06 | 57.22668 | 87.36638 | 39184 ft | 519 kts | 116° |
| 2026-04-30 14:07 | 57.17769 | 87.54470 | 39183 ft | 519 kts | 116° |
| 2026-04-30 14:08 | 57.12848 | 87.72245 | 39189 ft | 518 kts | 116° |
| 2026-04-30 14:08 | 57.07941 | 87.89828 | 39186 ft | 516 kts | 116° |
| 2026-04-30 14:09 | 57.04651 | 88.01541 | 39193 ft | 515 kts | 116° |
| 2026-04-30 14:10 | 56.99706 | 88.19039 | 39197 ft | 515 kts | 116° |
| 2026-04-30 14:10 | 56.96397 | 88.30675 | 39197 ft | 514 kts | 116° |
| 2026-04-30 14:11 | 56.93087 | 88.42255 | 39197 ft | 512 kts | 116° |
| 2026-04-30 14:11 | 56.90087 | 88.54042 | 39198 ft | 510 kts | 111° |
| 2026-04-30 14:12 | 56.87359 | 88.66020 | 39197 ft | 510 kts | 110° |
| 2026-04-30 14:12 | 56.84660 | 88.77962 | 39197 ft | 510 kts | 110° |
| 2026-04-30 14:13 | 56.81943 | 88.89934 | 39196 ft | 509 kts | 111° |
| 2026-04-30 14:13 | 56.79231 | 89.01818 | 39197 ft | 506 kts | 111° |
| 2026-04-30 14:14 | 56.76519 | 89.13637 | 39200 ft | 505 kts | 111° |
| 2026-04-30 14:14 | 56.73793 | 89.25452 | 39201 ft | 505 kts | 111° |
| 2026-04-30 14:15 | 56.71059 | 89.37235 | 38937 ft | 503 kts | 111° |
| 2026-04-30 14:15 | 56.69693 | 89.43099 | 38370 ft | 502 kts | 111° |
| 2026-04-30 14:15 | 56.68330 | 89.48931 | 37845 ft | 500 kts | 111° |
| 2026-04-30 14:15 | 56.66981 | 89.54688 | 37286 ft | 500 kts | 111° |
| 2026-04-30 14:16 | 56.65620 | 89.60484 | 36734 ft | 499 kts | 110° |
| 2026-04-30 14:16 | 56.64253 | 89.66288 | 36174 ft | 499 kts | 110° |
| 2026-04-30 14:16 | 56.62884 | 89.72087 | 35551 ft | 501 kts | 110° |
| 2026-04-30 14:16 | 56.61504 | 89.77916 | 34907 ft | 503 kts | 110° |
| 2026-04-30 14:17 | 56.60117 | 89.83763 | 34216 ft | 506 kts | 109° |
| 2026-04-30 14:17 | 56.58716 | 89.89650 | 33344 ft | 510 kts | 110° |
| 2026-04-30 14:17 | 56.57302 | 89.95577 | 32531 ft | 513 kts | 110° |
| 2026-04-30 14:17 | 56.55880 | 90.01522 | 31720 ft | 515 kts | 110° |
| 2026-04-30 14:18 | 56.54443 | 90.07508 | 30913 ft | 518 kts | 111° |
| 2026-04-30 14:18 | 56.53009 | 90.13461 | 30335 ft | 513 kts | 111° |
| 2026-04-30 14:18 | 56.50164 | 90.25222 | 29084 ft | 505 kts | 111° |
| 2026-04-30 14:19 | 56.47365 | 90.36737 | 27891 ft | 495 kts | 111° |
| 2026-04-30 14:19 | 56.45980 | 90.42415 | 27296 ft | 491 kts | 111° |
| 2026-04-30 14:19 | 56.44608 | 90.48027 | 26713 ft | 486 kts | 111° |
| 2026-04-30 14:20 | 56.43261 | 90.53521 | 26127 ft | 482 kts | 111° |
| 2026-04-30 14:20 | 56.41906 | 90.59032 | 25562 ft | 479 kts | 111° |
| 2026-04-30 14:20 | 56.39213 | 90.69946 | 24385 ft | 472 kts | 112° |
| 2026-04-30 14:21 | 56.37880 | 90.75333 | 23794 ft | 469 kts | 112° |
| 2026-04-30 14:21 | 56.36552 | 90.80682 | 23122 ft | 465 kts | 112° |
| 2026-04-30 14:21 | 56.33933 | 90.91188 | 21963 ft | 454 kts | 112° |
| 2026-04-30 14:22 | 56.32645 | 90.96340 | 21393 ft | 449 kts | 112° |
| 2026-04-30 14:22 | 56.30103 | 91.06475 | 20256 ft | 439 kts | 112° |
| 2026-04-30 14:22 | 56.28881 | 91.11471 | 19724 ft | 433 kts | 108° |
| 2026-04-30 14:23 | 56.27649 | 91.21861 | 18744 ft | 420 kts | 95° |
| 2026-04-30 14:23 | 56.26835 | 91.32184 | 17621 ft | 413 kts | 95° |
| 2026-04-30 14:24 | 56.26020 | 91.42287 | 16566 ft | 404 kts | 95° |
| 2026-04-30 14:24 | 56.25610 | 91.47262 | 16040 ft | 400 kts | 95° |
| 2026-04-30 14:25 | 56.24794 | 91.57070 | 15008 ft | 393 kts | 96° |
| 2026-04-30 14:25 | 56.24021 | 91.66647 | 13984 ft | 386 kts | 92° |
| 2026-04-30 14:26 | 56.24578 | 91.76006 | 12965 ft | 371 kts | 75° |
| 2026-04-30 14:26 | 56.25106 | 91.80576 | 12459 ft | 367 kts | 75° |
| 2026-04-30 14:26 | 56.26128 | 91.89397 | 11494 ft | 359 kts | 75° |
| 2026-04-30 14:27 | 56.26626 | 91.93775 | 11146 ft | 351 kts | 76° |
| 2026-04-30 14:27 | 56.27100 | 91.97991 | 11058 ft | 333 kts | 76° |
| 2026-04-30 14:27 | 56.27546 | 92.01988 | 10954 ft | 319 kts | 76° |
| 2026-04-30 14:28 | 56.28385 | 92.09527 | 10670 ft | 297 kts | 76° |
| 2026-04-30 14:28 | 56.28784 | 92.13126 | 10530 ft | 290 kts | 76° |
| 2026-04-30 14:28 | 56.29178 | 92.16682 | 10199 ft | 290 kts | 76° |
| 2026-04-30 14:28 | 56.29394 | 92.20302 | 9838 ft | 293 kts | 89° |
| 2026-04-30 14:29 | 56.29026 | 92.27566 | 9209 ft | 290 kts | 95° |
| 2026-04-30 14:29 | 56.28628 | 92.33584 | 8482 ft | 294 kts | 96° |
| 2026-04-30 14:30 | 56.27849 | 92.45567 | 7409 ft | 286 kts | 96° |
| 2026-04-30 14:31 | 56.27389 | 92.52641 | 6777 ft | 283 kts | 97° |
| 2026-04-30 14:31 | 56.26932 | 92.59623 | 6135 ft | 279 kts | 97° |
| 2026-04-30 14:31 | 56.26704 | 92.63082 | 5821 ft | 277 kts | 97° |
| 2026-04-30 14:32 | 56.25873 | 92.69765 | 5210 ft | 273 kts | 112° |
| 2026-04-30 14:32 | 56.25140 | 92.72910 | 4903 ft | 271 kts | 114° |
| 2026-04-30 14:32 | 56.24386 | 92.76011 | 4580 ft | 270 kts | 114° |
| 2026-04-30 14:33 | 56.23885 | 92.78047 | 4371 ft | 268 kts | 116° |
| 2026-04-30 14:33 | 56.21455 | 92.82585 | 4125 ft | 242 kts | 160° |
| 2026-04-30 14:33 | 56.19874 | 92.83091 | 4007 ft | 225 kts | 184° |
| 2026-04-30 14:34 | 56.18371 | 92.82517 | 3837 ft | 220 kts | 201° |
| 2026-04-30 14:34 | 56.16977 | 92.81493 | 3674 ft | 211 kts | 206° |
| 2026-04-30 14:34 | 56.15659 | 92.80440 | 3454 ft | 205 kts | 206° |
| 2026-04-30 14:34 | 56.14366 | 92.79406 | 3131 ft | 203 kts | 206° |
| 2026-04-30 14:35 | 56.12138 | 92.76592 | 2860 ft | 190 kts | 238° |
| 2026-04-30 14:35 | 56.11692 | 92.74421 | 2592 ft | 185 kts | 264° |
| 2026-04-30 14:35 | 56.11834 | 92.72148 | 2504 ft | 183 kts | 288° |
| 2026-04-30 14:36 | 56.12324 | 92.70070 | 2496 ft | 181 kts | 295° |
| 2026-04-30 14:36 | 56.12844 | 92.68021 | 2490 ft | 181 kts | 293° |
| 2026-04-30 14:36 | 56.13336 | 92.65956 | 2488 ft | 177 kts | 292° |
| 2026-04-30 14:36 | 56.13809 | 92.63966 | 2442 ft | 171 kts | 292° |
| 2026-04-30 14:37 | 56.14258 | 92.62082 | 2240 ft | 157 kts | 293° |
| 2026-04-30 14:37 | 56.14664 | 92.60384 | 2023 ft | 144 kts | 292° |
| 2026-04-30 14:37 | 56.15041 | 92.58803 | 1808 ft | 132 kts | 292° |
| 2026-04-30 14:37 | 56.15397 | 92.57310 | 1638 ft | 130 kts | 292° |
| 2026-04-30 14:38 | 56.15761 | 92.55820 | 1442 ft | 131 kts | 292° |
| 2026-04-30 14:38 | 56.16108 | 92.54305 | 1242 ft | 131 kts | 291° |
| 2026-04-30 14:38 | 56.16462 | 92.52798 | 1073 ft | 131 kts | 292° |
| 2026-04-30 14:38 | 56.16825 | 92.51300 | 956 ft | 130 kts | 291° |
| 2026-04-30 14:39 | 56.17117 | 92.50075 | 955 ft | 80 kts | 292° |
| 2026-04-30 14:39 | 56.17280 | 92.49392 | 956 ft | 36 kts | 292° |
| 2026-04-30 14:39 | 56.17360 | 92.49051 | 954 ft | 18 kts | 293° |
| 2026-04-30 14:40 | 56.17474 | 92.48723 | 953 ft | 13 kts | 322° |
| 2026-04-30 14:40 | 56.17530 | 92.48652 | 955 ft | 7 kts | 324° |
| 2026-04-30 14:40 | 56.17564 | 92.48609 | 956 ft | 6 kts | 324° |
| 2026-04-30 14:40 | 56.17584 | 92.48583 | 955 ft | 2 kts | 324° |
| 2026-04-30 14:41 | 56.17590 | 92.48576 | 955 ft | 0 kts | 324° |
| 2026-04-30 14:41 | 56.17590 | 92.48575 | 955 ft | 1 kts | 324° |
| 2026-04-30 14:41 | 56.17599 | 92.48563 | 955 ft | 3 kts | 324° |
| 2026-04-30 14:42 | 56.17620 | 92.48538 | 957 ft | 2 kts | 324° |
| 2026-04-30 14:42 | 56.17630 | 92.48524 | 956 ft | 0 kts | 324° |
| 2026-04-30 14:43 | 56.17639 | 92.48513 | 957 ft | 4 kts | 324° |
| 2026-04-30 14:43 | 56.17671 | 92.48471 | 956 ft | 8 kts | 323° |
| 2026-04-30 14:43 | 56.17720 | 92.48392 | 957 ft | 11 kts | 313° |
| 2026-04-30 14:43 | 56.17766 | 92.48259 | 957 ft | 14 kts | 295° |
| 2026-04-30 14:44 | 56.17808 | 92.48087 | 957 ft | 16 kts | 294° |
| 2026-04-30 14:44 | 56.17850 | 92.47916 | 959 ft | 7 kts | 301° |
| 2026-04-30 14:44 | 56.17891 | 92.47893 | 958 ft | 7 kts | 15° |
| 2026-04-30 14:44 | 56.17942 | 92.47932 | 958 ft | 9 kts | 24° |
| 2026-04-30 14:45 | 56.17989 | 92.47992 | 958 ft | 4 kts | 60° |
| 2026-04-30 14:45 | 56.17987 | 92.48038 | 957 ft | 5 kts | 104° |
| 2026-04-30 14:45 | 56.17972 | 92.48109 | 957 ft | 7 kts | 113° |
| 2026-04-30 14:45 | 56.17946 | 92.48207 | 956 ft | 10 kts | 120° |
| 2026-04-30 14:46 | 56.17912 | 92.48294 | 958 ft | 2 kts | 120° |
| 2026-04-30 14:46 | 56.17901 | 92.48337 | 958 ft | 5 kts | 107° |
| 2026-04-30 14:46 | 56.17913 | 92.48379 | 958 ft | 4 kts | 39° |
| 2026-04-30 14:46 | 56.17944 | 92.48407 | 958 ft | 6 kts | 25° |
| 2026-04-30 14:47 | 56.17964 | 92.48425 | 957 ft | 2 kts | 26° |
| 2026-04-30 14:47 | 56.17965 | 92.48426 | 957 ft | 0 kts | 26° |